createdAt,value
2022-12-26T00:00:20.305Z,98292.34
2022-12-26T00:01:25.301Z,98291.63
2022-12-26T00:02:26.836Z,98287.19
2022-12-26T00:03:30.520Z,98294.69
2022-12-26T00:04:50.812Z,98298.78
2022-12-26T00:05:53.713Z,98298.09
2022-12-26T00:06:55.509Z,98293.56
2022-12-26T00:07:56.917Z,98292.88
2022-12-26T00:09:00.192Z,98300.38
2022-12-26T00:10:01.585Z,98297.44
2022-12-26T00:11:03.147Z,98295.25
2022-12-26T00:12:04.753Z,98302.47
2022-12-26T00:13:37.467Z,98302.47
2022-12-26T00:14:28.324Z,98299.59
2022-12-26T00:15:29.815Z,98302.63
2022-12-26T00:16:31.652Z,98305.75
2022-12-26T00:17:33.270Z,98303.59
2022-12-26T00:18:34.740Z,98299.13
2022-12-26T00:19:36.384Z,98307.06
2022-12-26T00:20:37.834Z,98304.50
2022-12-26T00:21:39.733Z,98301.84
2022-12-26T00:22:42.388Z,98306.00
2022-12-26T00:23:44.370Z,98310.50
2022-12-26T00:24:47.618Z,98305.91
2022-12-26T00:25:49.037Z,98308.56
2022-12-26T00:26:50.792Z,98311.56
2022-12-26T00:27:52.419Z,98311.59
2022-12-26T00:28:55.438Z,98307.44
2022-12-26T00:29:56.851Z,98313.41
2022-12-26T00:30:58.803Z,98316.53
2022-12-26T00:32:00.329Z,98314.28
2022-12-26T00:33:01.853Z,98309.78
2022-12-26T00:34:03.468Z,98306.78
2022-12-26T00:35:05.247Z,98305.69
2022-12-26T00:36:10.027Z,98308.94
2022-12-26T00:37:11.547Z,98306.69
2022-12-26T00:38:13.002Z,98302.47
2022-12-26T00:39:14.489Z,98302.00
2022-12-26T00:40:15.944Z,98306.56
2022-12-26T00:41:18.914Z,98302.31
2022-12-26T00:42:20.242Z,98304.69
2022-12-26T00:43:21.735Z,98306.16
2022-12-26T00:44:23.164Z,98309.25
2022-12-26T00:45:24.602Z,98301.00
2022-12-26T00:46:27.477Z,98309.25
2022-12-26T00:47:28.930Z,98310.44
2022-12-26T00:48:30.607Z,98307.84
2022-12-26T00:50:12.323Z,98302.63
2022-12-26T00:50:54.134Z,98314.69
2022-12-26T00:51:55.608Z,98304.09
2022-12-26T00:52:57.084Z,98307.19
2022-12-26T00:53:58.536Z,98300.69
2022-12-26T00:55:00.001Z,98307.56
2022-12-26T00:56:02.137Z,98307.25
2022-12-26T00:57:03.798Z,98300.84
2022-12-26T00:58:05.367Z,98300.91
2022-12-26T00:59:06.792Z,98299.34
2022-12-26T01:00:08.868Z,98300.78
2022-12-26T01:01:22.760Z,98300.16
2022-12-26T01:02:53.649Z,98297.09
2022-12-26T01:03:55.140Z,98297.69
2022-12-26T01:04:56.594Z,98297.56
2022-12-26T01:05:58.035Z,98295.25
2022-12-26T01:06:59.459Z,98300.81
2022-12-26T01:08:20.524Z,98309.56
2022-12-26T01:09:22.601Z,98302.53
2022-12-26T01:10:24.040Z,98308.19
2022-12-26T01:11:41.350Z,98307.81
2022-12-26T01:12:43.002Z,98312.34
2022-12-26T01:13:44.475Z,98305.50
2022-12-26T01:14:46.001Z,98310.22
2022-12-26T01:15:52.363Z,98308.56
2022-12-26T01:16:53.857Z,98307.44
2022-12-26T01:17:55.361Z,98302.09
2022-12-26T01:18:56.799Z,98307.75
2022-12-26T01:19:58.819Z,98307.41
2022-12-26T01:21:03.482Z,98305.84
2022-12-26T01:22:04.943Z,98314.81
2022-12-26T01:23:06.347Z,98305.78
2022-12-26T01:24:07.878Z,98298.50
2022-12-26T01:25:11.009Z,98303.63
2022-12-26T01:26:18.818Z,98306.63
2022-12-26T01:27:22.344Z,98302.19
2022-12-26T01:28:23.808Z,98308.25
2022-12-26T01:29:26.248Z,98307.44
2022-12-26T01:30:27.778Z,98312.59
2022-12-26T01:31:29.661Z,98308.91
2022-12-26T01:32:31.117Z,98310.91
2022-12-26T01:33:33.116Z,98305.50
2022-12-26T01:34:34.528Z,98305.84
2022-12-26T01:35:35.961Z,98310.78
2022-12-26T01:36:37.744Z,98308.25
2022-12-26T01:37:39.140Z,98315.69
2022-12-26T01:38:40.558Z,98302.72
2022-12-26T01:39:42.748Z,98307.06
2022-12-26T01:40:44.569Z,98303.47
2022-12-26T01:41:46.403Z,98303.38
2022-12-26T01:42:47.845Z,98299.88
2022-12-26T01:43:54.499Z,98296.09
2022-12-26T01:45:21.563Z,98291.84
2022-12-26T01:46:29.444Z,98303.38
2022-12-26T01:47:39.790Z,98301.88
2022-12-26T01:48:41.246Z,98304.59
2022-12-26T01:49:45.984Z,98295.94
2022-12-26T01:51:00.934Z,98304.31
2022-12-26T01:52:06.833Z,98317.25
2022-12-26T01:53:18.056Z,98312.16
2022-12-26T01:54:40.605Z,98307.28
2022-12-26T01:55:46.396Z,98308.19
2022-12-26T01:56:48.804Z,98304.47
2022-12-26T01:57:56.371Z,98310.91
2022-12-26T01:59:06.470Z,98300.19
2022-12-26T02:00:09.008Z,98310.31
2022-12-26T02:01:12.002Z,98305.06
2022-12-26T02:02:14.362Z,98317.19
2022-12-26T02:03:34.423Z,98318.72
2022-12-26T02:05:16.552Z,98314.16
2022-12-26T02:06:18.102Z,98305.47
2022-12-26T02:07:19.771Z,98301.03
2022-12-26T02:08:34.800Z,98292.88
2022-12-26T02:09:37.536Z,98290.50
2022-12-26T02:10:47.152Z,98292.44
2022-12-26T02:12:34.238Z,98289.94
2022-12-26T02:13:18.407Z,98298.03
2022-12-26T02:14:20.145Z,98301.25
2022-12-26T02:15:21.727Z,98297.41
2022-12-26T02:16:24.203Z,98291.63
2022-12-26T02:17:26.641Z,98284.34
2022-12-26T02:18:28.130Z,98297.13
2022-12-26T02:19:53.516Z,98288.25
2022-12-26T02:20:57.676Z,98291.50
2022-12-26T02:22:18.342Z,98288.88
2022-12-26T02:23:44.068Z,98289.16
2022-12-26T02:25:15.829Z,98306.19
2022-12-26T02:26:58.522Z,98295.81
2022-12-26T02:27:59.905Z,98304.19
2022-12-26T02:29:04.296Z,98298.97
2022-12-26T02:30:27.524Z,98299.78
2022-12-26T02:32:05.368Z,98301.13
2022-12-26T02:33:42.851Z,98297.97
2022-12-26T02:35:00.278Z,98295.97
2022-12-26T02:36:22.859Z,98299.13
2022-12-26T02:37:48.877Z,98292.06
2022-12-26T02:39:45.106Z,98287.38
2022-12-26T02:40:51.982Z,98286.56
2022-12-26T02:42:46.021Z,98286.91
2022-12-26T02:44:28.386Z,98289.25
2022-12-26T02:46:01.760Z,98289.31
2022-12-26T02:47:35.665Z,98298.78
2022-12-26T02:48:51.383Z,98288.44
2022-12-26T02:50:36.459Z,98288.16
2022-12-26T02:52:24.410Z,98285.81
2022-12-26T02:54:04.194Z,98287.28
2022-12-26T02:55:30.631Z,98287.44
2022-12-26T02:57:04.233Z,98287.09
2022-12-26T02:58:36.100Z,98282.88
2022-12-26T03:00:20.509Z,98282.22
2022-12-26T03:02:03.324Z,98277.72
2022-12-26T03:03:32.530Z,98285.16
2022-12-26T03:04:55.650Z,98282.34
2022-12-26T03:06:31.793Z,98287.06
2022-12-26T03:07:56.205Z,98292.34
2022-12-26T03:09:20.821Z,98296.91
2022-12-26T03:10:49.529Z,98295.03
2022-12-26T03:12:18.302Z,98298.97
2022-12-26T03:13:26.195Z,98296.06
2022-12-26T03:14:32.372Z,98295.69
2022-12-26T03:15:57.105Z,98291.69
2022-12-26T03:17:22.625Z,98292.16
2022-12-26T03:18:58.178Z,98293.00
2022-12-26T03:20:01.072Z,98299.81
2022-12-26T03:21:04.921Z,98295.22
2022-12-26T03:22:28.706Z,98299.16
2022-12-26T03:23:31.825Z,98296.47
2022-12-26T03:24:53.594Z,98293.63
2022-12-26T03:26:20.716Z,98298.63
2022-12-26T03:27:22.183Z,98304.38
2022-12-26T03:28:25.752Z,98304.28
2022-12-26T03:29:45.756Z,98310.69
2022-12-26T03:30:50.405Z,98308.88
2022-12-26T03:31:52.040Z,98311.16
2022-12-26T03:32:56.289Z,98310.38
2022-12-26T03:34:18.956Z,98307.91
2022-12-26T03:35:20.565Z,98310.88
2022-12-26T03:36:27.795Z,98305.59
2022-12-26T03:37:48.889Z,98314.22
2022-12-26T03:39:11.470Z,98301.88
2022-12-26T03:40:55.017Z,98296.16
2022-12-26T03:42:31.816Z,98303.19
2022-12-26T03:44:25.942Z,98298.97
2022-12-26T03:45:51.946Z,98302.44
2022-12-26T03:47:34.296Z,98301.25
2022-12-26T03:49:05.142Z,98305.19
2022-12-26T03:50:44.036Z,98304.53
2022-12-26T03:52:16.576Z,98300.84
2022-12-26T03:53:42.327Z,98298.19
2022-12-26T03:55:12.818Z,98298.34
2022-12-26T03:56:41.357Z,98303.56
2022-12-26T03:58:30.545Z,98300.00
2022-12-26T04:00:14.160Z,98314.63
2022-12-26T04:01:39.150Z,98317.09
2022-12-26T04:03:04.642Z,98321.41
2022-12-26T04:04:32.754Z,98318.69
2022-12-26T04:05:58.272Z,98322.09
2022-12-26T04:07:28.559Z,98327.28
2022-12-26T04:09:13.757Z,98309.19
2022-12-26T04:10:57.798Z,98311.47
2022-12-26T04:12:20.765Z,98319.44
2022-12-26T04:14:04.724Z,98312.44
2022-12-26T04:15:38.183Z,98322.19
2022-12-26T04:17:18.128Z,98313.25
2022-12-26T04:18:43.395Z,98310.00
2022-12-26T04:19:54.349Z,98304.06
2022-12-26T04:21:35.778Z,98313.75
2022-12-26T04:22:59.000Z,98308.19
2022-12-26T04:24:27.344Z,98314.00
2022-12-26T04:25:54.275Z,98308.13
2022-12-26T04:27:20.120Z,98309.03
2022-12-26T04:28:42.529Z,98311.81
2022-12-26T04:30:02.884Z,98313.97
2022-12-26T04:31:32.435Z,98318.97
2022-12-26T04:33:05.180Z,98305.19
2022-12-26T04:34:34.136Z,98306.00
2022-12-26T04:36:08.428Z,98297.66
2022-12-26T04:37:37.289Z,98299.25
2022-12-26T04:39:02.553Z,98302.19
2022-12-26T04:40:27.023Z,98302.94
2022-12-26T04:41:49.955Z,98317.09
2022-12-26T04:43:49.233Z,98317.94
2022-12-26T04:44:34.042Z,98319.50
2022-12-26T04:45:36.133Z,98319.97
2022-12-26T04:46:41.822Z,98314.75
2022-12-26T04:48:03.942Z,98317.09
2022-12-26T04:49:26.939Z,98323.03
2022-12-26T04:50:28.413Z,98323.72
2022-12-26T04:51:29.899Z,98319.16
2022-12-26T04:52:50.401Z,98329.31
2022-12-26T04:53:51.842Z,98319.63
2022-12-26T04:54:53.319Z,98324.75
2022-12-26T04:55:54.751Z,98323.88
2022-12-26T04:56:56.266Z,98324.22
2022-12-26T04:57:58.716Z,98318.59
2022-12-26T04:59:00.172Z,98319.13
2022-12-26T05:00:01.653Z,98318.59
2022-12-26T05:01:23.474Z,98313.63
2022-12-26T05:02:43.619Z,98320.03
2022-12-26T05:04:04.118Z,98321.94
2022-12-26T05:05:24.406Z,98316.19
2022-12-26T05:06:44.287Z,98307.41
2022-12-26T05:08:04.255Z,98311.34
2022-12-26T05:09:24.504Z,98305.94
2022-12-26T05:10:28.104Z,98309.41
2022-12-26T05:11:32.611Z,98305.25
2022-12-26T05:12:34.448Z,98288.59
2022-12-26T05:13:36.344Z,98302.59
2022-12-26T05:14:37.878Z,98302.59
2022-12-26T05:15:59.765Z,98297.38
2022-12-26T05:17:26.603Z,98296.56
2022-12-26T05:19:06.589Z,98295.00
2022-12-26T05:20:28.647Z,98291.88
2022-12-26T05:21:49.114Z,98281.91
2022-12-26T05:23:10.893Z,98282.28
2022-12-26T05:24:31.273Z,98283.41
2022-12-26T05:25:54.241Z,98284.16
2022-12-26T05:27:14.527Z,98284.22
2022-12-26T05:28:36.024Z,98282.72
2022-12-26T05:29:37.436Z,98291.59
2022-12-26T05:30:38.929Z,98289.75
2022-12-26T05:31:40.443Z,98293.63
2022-12-26T05:33:00.613Z,98295.22
2022-12-26T05:34:13.086Z,98299.75
2022-12-26T05:35:14.571Z,98302.59
2022-12-26T05:36:18.991Z,98297.69
2022-12-26T05:37:20.412Z,98301.09
2022-12-26T05:38:21.870Z,98290.91
2022-12-26T05:39:23.784Z,98291.59
2022-12-26T05:40:25.398Z,98293.72
2022-12-26T05:41:26.836Z,98294.09
2022-12-26T05:42:28.486Z,98298.25
2022-12-26T05:43:29.905Z,98296.31
2022-12-26T05:44:31.657Z,98301.94
2022-12-26T05:45:33.124Z,98304.88
2022-12-26T05:46:35.266Z,98303.13
2022-12-26T05:47:36.831Z,98300.59
2022-12-26T05:48:38.273Z,98297.59
2022-12-26T05:49:39.700Z,98293.66
2022-12-26T05:50:41.178Z,98291.84
2022-12-26T05:51:42.646Z,98284.34
2022-12-26T05:52:44.174Z,98281.06
2022-12-26T05:53:45.751Z,98280.75
2022-12-26T05:54:47.480Z,98278.72
2022-12-26T05:55:48.934Z,98285.56
2022-12-26T05:56:50.382Z,98290.47
2022-12-26T05:57:51.969Z,98279.91
2022-12-26T05:58:58.482Z,98275.41
2022-12-26T06:00:00.303Z,98281.81
2022-12-26T06:01:09.187Z,98278.13
2022-12-26T06:02:10.797Z,98284.25
2022-12-26T06:03:12.392Z,98280.25
2022-12-26T06:04:14.781Z,98280.75
2022-12-26T06:05:16.934Z,98273.16
2022-12-26T06:06:19.957Z,98285.59
2022-12-26T06:07:21.386Z,98290.13
2022-12-26T06:08:22.897Z,98284.91
2022-12-26T06:09:24.418Z,98286.88
2022-12-26T06:10:27.304Z,98286.09
2022-12-26T06:11:28.777Z,98291.84
2022-12-26T06:12:30.188Z,98288.09
2022-12-26T06:13:32.199Z,98295.72
2022-12-26T06:14:33.604Z,98293.13
2022-12-26T06:15:38.350Z,98300.41
2022-12-26T06:16:39.784Z,98298.53
2022-12-26T06:17:41.279Z,98294.00
2022-12-26T06:18:42.918Z,98290.69
2022-12-26T06:19:46.909Z,98293.38
2022-12-26T06:20:48.944Z,98290.03
2022-12-26T06:21:50.380Z,98296.13
2022-12-26T06:22:51.824Z,98286.72
2022-12-26T06:23:53.281Z,98295.03
2022-12-26T06:24:54.723Z,98286.00
2022-12-26T06:25:57.487Z,98288.28
2022-12-26T06:26:58.943Z,98286.78
2022-12-26T06:28:00.373Z,98284.94
2022-12-26T06:29:01.926Z,98284.25
2022-12-26T06:30:03.980Z,98290.66
2022-12-26T06:31:18.237Z,98290.28
2022-12-26T06:32:19.844Z,98294.44
2022-12-26T06:33:21.285Z,98281.66
2022-12-26T06:34:22.750Z,98273.31
2022-12-26T06:35:24.514Z,98283.88
2022-12-26T06:36:27.096Z,98285.75
2022-12-26T06:37:28.685Z,98286.50
2022-12-26T06:38:30.109Z,98282.34
2022-12-26T06:39:31.577Z,98284.25
2022-12-26T06:40:33.520Z,98289.53
2022-12-26T06:41:34.991Z,98285.75
2022-12-26T06:42:36.492Z,98284.63
2022-12-26T06:43:38.405Z,98288.03
2022-12-26T06:44:39.844Z,98289.56
2022-12-26T06:45:41.268Z,98290.66
2022-12-26T06:46:42.702Z,98295.25
2022-12-26T06:47:44.986Z,98292.59
2022-12-26T06:48:46.505Z,98289.59
2022-12-26T06:49:47.952Z,98285.06
2022-12-26T06:50:49.829Z,98286.94
2022-12-26T06:51:51.222Z,98286.19
2022-12-26T06:52:52.680Z,98291.91
2022-12-26T06:53:54.958Z,98293.00
2022-12-26T06:54:58.714Z,98300.16
2022-12-26T06:56:12.078Z,98293.72
2022-12-26T06:57:13.517Z,98299.00
2022-12-26T06:58:15.576Z,98301.53
2022-12-26T06:59:16.980Z,98302.31
2022-12-26T07:00:18.567Z,98305.38
2022-12-26T07:01:20.524Z,98300.84
2022-12-26T07:02:22.258Z,98303.06
2022-12-26T07:03:25.971Z,98308.03
2022-12-26T07:04:27.451Z,98300.47
2022-12-26T07:05:28.874Z,98304.31
2022-12-26T07:06:32.431Z,98302.81
2022-12-26T07:07:33.860Z,98299.09
2022-12-26T07:08:35.337Z,98303.25
2022-12-26T07:09:36.975Z,98298.72
2022-12-26T07:10:38.487Z,98307.78
2022-12-26T07:11:44.581Z,98314.56
2022-12-26T07:12:47.756Z,98325.53
2022-12-26T07:13:49.286Z,98320.53
2022-12-26T07:14:50.682Z,98314.13
2022-12-26T07:15:52.445Z,98308.06
2022-12-26T07:16:53.926Z,98307.28
2022-12-26T07:17:55.932Z,98312.22
2022-12-26T07:18:58.677Z,98315.25
2022-12-26T07:20:00.146Z,98317.59
2022-12-26T07:21:08.076Z,98314.56
2022-12-26T07:22:09.499Z,98320.22
2022-12-26T07:23:11.181Z,98315.25
2022-12-26T07:24:22.694Z,98317.13
2022-12-26T07:25:24.485Z,98314.13
2022-12-26T07:26:26.461Z,98315.25
2022-12-26T07:27:27.941Z,98315.25
2022-12-26T07:28:29.749Z,98309.66
2022-12-26T07:29:31.235Z,98312.31
2022-12-26T07:30:33.001Z,98305.88
2022-12-26T07:31:34.416Z,98310.41
2022-12-26T07:32:35.877Z,98313.44
2022-12-26T07:33:37.329Z,98316.09
2022-12-26T07:34:38.770Z,98322.53
2022-12-26T07:35:40.221Z,98316.53
2022-12-26T07:36:41.799Z,98322.13
2022-12-26T07:37:43.223Z,98318.38
2022-12-26T07:38:44.864Z,98328.03
2022-12-26T07:39:46.313Z,98322.44
2022-12-26T07:40:47.762Z,98322.78
2022-12-26T07:41:58.233Z,98330.34
2022-12-26T07:42:59.761Z,98328.84
2022-12-26T07:44:01.402Z,98334.19
2022-12-26T07:45:03.380Z,98335.34
2022-12-26T07:46:06.114Z,98334.63
2022-12-26T07:47:07.594Z,98337.16
2022-12-26T07:48:10.005Z,98336.53
2022-12-26T07:49:12.352Z,98337.31
2022-12-26T07:50:13.880Z,98333.94
2022-12-26T07:51:16.048Z,98335.13
2022-12-26T07:52:18.313Z,98335.06
2022-12-26T07:53:19.769Z,98338.84
2022-12-26T07:54:21.331Z,98335.78
2022-12-26T07:55:22.802Z,98339.56
2022-12-26T07:56:24.283Z,98345.25
2022-12-26T07:58:50.797Z,98344.56
2022-12-26T07:59:53.760Z,98346.03
2022-12-26T08:00:55.895Z,98338.91
2022-12-26T08:01:59.790Z,98335.50
2022-12-26T08:03:07.402Z,98339.19
2022-12-26T08:04:11.286Z,98334.28
2022-12-26T08:05:12.992Z,98324.44
2022-12-26T08:06:14.778Z,98335.44
2022-12-26T08:07:16.233Z,98330.16
2022-12-26T08:08:17.628Z,98329.03
2022-12-26T08:09:19.032Z,98330.94
2022-12-26T08:10:20.849Z,98336.25
2022-12-26T08:11:24.087Z,98344.22
2022-12-26T08:12:26.802Z,98342.31
2022-12-26T08:13:29.414Z,98339.66
2022-12-26T08:14:30.909Z,98344.22
2022-12-26T08:15:32.786Z,98342.38
2022-12-26T08:16:34.262Z,98344.31
2022-12-26T08:17:35.743Z,98341.97
2022-12-26T08:18:37.144Z,98340.88
2022-12-26T08:19:38.582Z,98341.16
2022-12-26T08:20:40.050Z,98334.31
2022-12-26T08:21:41.530Z,98332.47
2022-12-26T08:22:42.933Z,98341.53
2022-12-26T08:23:45.187Z,98337.72
2022-12-26T08:24:46.577Z,98340.41
2022-12-26T08:25:48.313Z,98342.72
2022-12-26T08:26:49.715Z,98340.84
2022-12-26T08:27:51.159Z,98344.59
2022-12-26T08:28:52.818Z,98340.41
2022-12-26T08:29:54.274Z,98343.09
2022-12-26T08:30:55.731Z,98344.72
2022-12-26T08:31:57.142Z,98346.59
2022-12-26T08:32:58.658Z,98351.13
2022-12-26T08:34:00.123Z,98356.03
2022-12-26T08:35:03.217Z,98351.44
2022-12-26T08:36:10.064Z,98353.34
2022-12-26T08:37:11.502Z,98354.53
2022-12-26T08:38:12.931Z,98353.72
2022-12-26T08:39:14.339Z,98362.78
2022-12-26T08:40:26.848Z,98360.56
2022-12-26T08:41:37.605Z,98357.50
2022-12-26T08:42:44.869Z,98362.78
2022-12-26T08:44:27.926Z,98355.59
2022-12-26T08:45:18.775Z,98365.81
2022-12-26T08:46:21.315Z,98364.25
2022-12-26T08:47:26.326Z,98369.53
2022-12-26T08:48:27.947Z,98368.84
2022-12-26T08:49:29.371Z,98369.97
2022-12-26T08:50:33.328Z,98378.66
2022-12-26T08:51:38.649Z,98378.28
2022-12-26T08:52:40.101Z,98379.31
2022-12-26T08:53:42.148Z,98381.19
2022-12-26T08:54:43.593Z,98372.47
2022-12-26T08:55:45.015Z,98375.44
2022-12-26T08:56:46.792Z,98377.38
2022-12-26T08:57:48.348Z,98375.91
2022-12-26T08:58:50.056Z,98382.66
2022-12-26T08:59:51.466Z,98384.13
2022-12-26T09:00:55.488Z,98383.78
2022-12-26T09:01:57.174Z,98385.28
2022-12-26T09:02:58.624Z,98377.31
2022-12-26T09:04:03.295Z,98380.44
2022-12-26T09:05:05.151Z,98375.16
2022-12-26T09:06:07.937Z,98371.41
2022-12-26T09:07:09.681Z,98375.25
2022-12-26T09:08:11.790Z,98380.53
2022-12-26T09:09:13.584Z,98379.13
2022-12-26T09:10:15.104Z,98376.50
2022-12-26T09:11:19.539Z,98372.41
2022-12-26T09:12:20.938Z,98375.41
2022-12-26T09:13:23.327Z,98383.03
2022-12-26T09:14:24.738Z,98383.03
2022-12-26T09:15:26.159Z,98371.22
2022-12-26T09:16:38.375Z,98364.78
2022-12-26T09:17:41.467Z,98369.38
2022-12-26T09:18:44.914Z,98370.91
2022-12-26T09:19:46.336Z,98371.69
2022-12-26T09:20:47.784Z,98378.53
2022-12-26T09:22:10.548Z,98384.22
2022-12-26T09:23:12.270Z,98379.78
2022-12-26T09:24:16.617Z,98376.34
2022-12-26T09:25:19.840Z,98375.97
2022-12-26T09:26:21.655Z,98377.53
2022-12-26T09:27:23.093Z,98379.78
2022-12-26T09:28:24.564Z,98382.75
2022-12-26T09:29:25.979Z,98379.44
2022-12-26T09:30:27.631Z,98382.09
2022-12-26T09:31:31.826Z,98381.69
2022-12-26T09:32:34.379Z,98378.31
2022-12-26T09:33:38.853Z,98374.97
2022-12-26T09:34:40.329Z,98382.44
2022-12-26T09:35:42.107Z,98386.25
2022-12-26T09:36:43.636Z,98383.66
2022-12-26T09:37:45.159Z,98393.09
2022-12-26T09:38:48.286Z,98394.25
2022-12-26T09:39:50.362Z,98390.47
2022-12-26T09:41:06.260Z,98399.91
2022-12-26T09:42:34.133Z,98407.09
2022-12-26T09:43:50.356Z,98408.56
2022-12-26T09:45:13.365Z,98403.31
2022-12-26T09:46:39.021Z,98404.44
2022-12-26T09:48:25.893Z,98404.81
2022-12-26T09:49:32.348Z,98405.25
2022-12-26T09:50:42.886Z,98401.47
2022-12-26T09:51:49.882Z,98404.88
2022-12-26T09:53:37.850Z,98412.41
2022-12-26T09:54:43.061Z,98404.72
2022-12-26T09:55:53.692Z,98405.84
2022-12-26T09:57:06.283Z,98403.59
2022-12-26T09:58:25.767Z,98406.22
2022-12-26T09:59:27.334Z,98404.34
2022-12-26T10:00:37.960Z,98406.94
2022-12-26T10:01:40.250Z,98407.28
2022-12-26T10:02:42.265Z,98412.59
2022-12-26T10:03:47.843Z,98415.22
2022-12-26T10:04:50.018Z,98416.69
2022-12-26T10:06:15.989Z,98420.09
2022-12-26T10:07:41.992Z,98412.84
2022-12-26T10:08:58.429Z,98419.56
2022-12-26T10:10:18.677Z,98418.03
2022-12-26T10:11:34.286Z,98424.09
2022-12-26T10:12:56.104Z,98417.19
2022-12-26T10:14:09.645Z,98422.78
2022-12-26T10:15:26.355Z,98426.56
2022-12-26T10:16:46.494Z,98424.63
2022-12-26T10:18:15.868Z,98426.88
2022-12-26T10:19:46.487Z,98418.16
2022-12-26T10:21:17.396Z,98422.63
2022-12-26T10:22:47.542Z,98416.75
2022-12-26T10:23:55.675Z,98416.44
2022-12-26T10:25:00.234Z,98421.41
2022-12-26T10:26:27.480Z,98419.97
2022-12-26T10:27:37.728Z,98424.16
2022-12-26T10:29:00.213Z,98424.75
2022-12-26T10:30:07.335Z,98430.03
2022-12-26T10:31:35.251Z,98432.66
2022-12-26T10:32:41.094Z,98429.28
2022-12-26T10:33:45.976Z,98437.28
2022-12-26T10:34:49.052Z,98442.91
2022-12-26T10:35:50.521Z,98446.72
2022-12-26T10:37:01.501Z,98444.06
2022-12-26T10:38:25.709Z,98448.16
2022-12-26T10:39:35.838Z,98447.06
2022-12-26T10:40:42.988Z,98450.41
2022-12-26T10:41:52.832Z,98451.25
2022-12-26T10:42:57.933Z,98440.66
2022-12-26T10:43:59.456Z,98445.91
2022-12-26T10:45:02.138Z,98445.91
2022-12-26T10:46:40.665Z,98450.41
2022-12-26T10:47:45.998Z,98453.22
2022-12-26T10:48:48.312Z,98460.38
2022-12-26T10:49:49.891Z,98454.69
2022-12-26T10:50:51.322Z,98453.91
2022-12-26T10:51:56.686Z,98454.34
2022-12-26T10:52:59.678Z,98459.88
2022-12-26T10:54:00.991Z,98461.03
2022-12-26T10:55:29.095Z,98456.66
2022-12-26T10:56:27.794Z,98455.44
2022-12-26T10:57:31.972Z,98465.53
2022-12-26T10:58:36.522Z,98457.66
2022-12-26T10:59:47.272Z,98461.16
2022-12-26T11:00:48.891Z,98459.72
2022-12-26T11:01:50.807Z,98457.47
2022-12-26T11:03:11.469Z,98459.94
2022-12-26T11:04:44.431Z,98459.66
2022-12-26T11:07:11.494Z,98457.84
2022-12-26T11:08:12.861Z,98458.66
2022-12-26T11:09:38.327Z,98452.03
2022-12-26T11:10:40.537Z,98451.66
2022-12-26T11:11:48.138Z,98448.94
2022-12-26T11:12:53.003Z,98443.53
2022-12-26T11:14:02.109Z,98448.72
2022-12-26T11:15:07.172Z,98461.59
2022-12-26T11:16:10.299Z,98461.38
2022-12-26T11:17:23.920Z,98456.41
2022-12-26T11:18:35.115Z,98456.56
2022-12-26T11:19:40.095Z,98447.88
2022-12-26T11:20:41.963Z,98448.19
2022-12-26T11:21:43.682Z,98449.97
2022-12-26T11:22:46.572Z,98448.34
2022-12-26T11:23:49.650Z,98447.56
2022-12-26T11:25:09.403Z,98448.41
2022-12-26T11:26:24.716Z,98448.44
2022-12-26T11:27:26.126Z,98445.16
2022-12-26T11:28:32.086Z,98451.19
2022-12-26T11:29:33.477Z,98449.03
2022-12-26T11:30:40.165Z,98447.22
2022-12-26T11:32:02.762Z,98447.59
2022-12-26T11:33:08.386Z,98436.28
2022-12-26T11:34:19.512Z,98441.22
2022-12-26T11:35:23.825Z,98444.63
2022-12-26T11:36:28.907Z,98449.53
2022-12-26T11:37:35.157Z,98440.81
2022-12-26T11:38:45.889Z,98441.72
2022-12-26T11:39:51.302Z,98440.28
2022-12-26T11:41:12.730Z,98437.66
2022-12-26T11:42:21.425Z,98434.59
2022-12-26T11:43:22.991Z,98424.94
2022-12-26T11:44:33.113Z,98428.16
2022-12-26T11:45:44.520Z,98427.22
2022-12-26T11:46:55.552Z,98424.94
2022-12-26T11:48:00.909Z,98430.31
2022-12-26T11:49:03.657Z,98437.53
2022-12-26T11:50:17.635Z,98426.31
2022-12-26T11:51:55.500Z,98441.81
2022-12-26T11:53:00.372Z,98433.91
2022-12-26T11:54:28.199Z,98429.41
2022-12-26T11:55:32.659Z,98427.97
2022-12-26T11:56:34.080Z,98434.78
2022-12-26T11:57:35.803Z,98416.00
2022-12-26T11:58:37.363Z,98423.81
2022-12-26T11:59:39.306Z,98420.47
2022-12-26T12:00:51.014Z,98429.56
2022-12-26T12:02:32.135Z,98426.47
2022-12-26T12:03:43.733Z,98416.31
2022-12-26T12:04:50.492Z,98425.16
2022-12-26T12:06:03.118Z,98428.59
2022-12-26T12:07:21.542Z,98417.66
2022-12-26T12:08:46.627Z,98428.56
2022-12-26T12:09:59.616Z,98414.50
2022-12-26T12:11:03.703Z,98411.16
2022-12-26T12:12:19.499Z,98420.22
2022-12-26T12:13:46.250Z,98418.66
2022-12-26T12:15:06.833Z,98414.72
2022-12-26T12:16:22.501Z,98418.09
2022-12-26T12:17:36.498Z,98407.59
2022-12-26T12:18:53.591Z,98413.34
2022-12-26T12:19:57.692Z,98414.09
2022-12-26T12:20:59.030Z,98398.66
2022-12-26T12:22:06.509Z,98396.47
2022-12-26T12:23:35.654Z,98409.63
2022-12-26T12:24:55.903Z,98402.94
2022-12-26T12:26:00.781Z,98404.88
2022-12-26T12:27:21.597Z,98420.34
2022-12-26T12:28:48.058Z,98428.28
2022-12-26T12:30:06.122Z,98427.16
2022-12-26T12:31:29.437Z,98435.19
2022-12-26T12:32:44.080Z,98431.88
2022-12-26T12:34:28.740Z,98424.75
2022-12-26T12:36:08.492Z,98417.31
2022-12-26T12:37:13.112Z,98416.88
2022-12-26T12:38:17.610Z,98414.72
2022-12-26T12:39:32.209Z,98420.13
2022-12-26T12:41:15.323Z,98428.09
2022-12-26T12:42:37.526Z,98431.88
2022-12-26T12:44:04.818Z,98433.03
2022-12-26T12:45:21.549Z,98430.16
2022-12-26T12:46:36.826Z,98431.22
2022-12-26T12:47:55.431Z,98430.44
2022-12-26T12:49:27.733Z,98425.28
2022-12-26T12:50:36.165Z,98421.47
2022-12-26T12:52:18.570Z,98417.59
2022-12-26T12:53:29.701Z,98413.72
2022-12-26T12:54:50.639Z,98415.66
2022-12-26T12:56:17.425Z,98416.81
2022-12-26T12:57:34.768Z,98411.22
2022-12-26T12:59:05.602Z,98409.09
2022-12-26T13:00:21.661Z,98414.72
2022-12-26T13:01:29.867Z,98414.38
2022-12-26T13:02:50.420Z,98412.50
2022-12-26T13:04:30.482Z,98418.13
2022-12-26T13:05:46.004Z,98412.28
2022-12-26T13:07:02.618Z,98413.41
2022-12-26T13:08:14.886Z,98412.97
2022-12-26T13:09:33.513Z,98413.00
2022-12-26T13:10:42.444Z,98418.69
2022-12-26T13:11:49.612Z,98421.47
2022-12-26T13:12:53.319Z,98424.72
2022-12-26T13:14:00.674Z,98424.81
2022-12-26T13:15:28.326Z,98416.25
2022-12-26T13:16:43.213Z,98409.03
2022-12-26T13:18:10.408Z,98406.34
2022-12-26T13:19:24.263Z,98401.50
2022-12-26T13:20:42.564Z,98387.56
2022-12-26T13:21:46.774Z,98389.91
2022-12-26T13:23:19.667Z,98393.91
2022-12-26T13:24:38.495Z,98408.34
2022-12-26T13:25:46.122Z,98408.34
2022-12-26T13:26:55.420Z,98410.94
2022-12-26T13:28:09.935Z,98399.66
2022-12-26T13:29:40.848Z,98398.19
2022-12-26T13:30:42.454Z,98403.16
2022-12-26T13:31:44.734Z,98404.34
2022-12-26T13:32:47.017Z,98406.56
2022-12-26T13:33:48.933Z,98410.44
2022-12-26T13:34:52.910Z,98410.31
2022-12-26T13:36:02.581Z,98403.00
2022-12-26T13:37:04.027Z,98410.94
2022-12-26T13:38:05.823Z,98412.91
2022-12-26T13:39:16.400Z,98416.59
2022-12-26T13:40:25.648Z,98412.22
2022-12-26T13:41:47.516Z,98411.66
2022-12-26T13:43:15.732Z,98407.13
2022-12-26T13:44:20.011Z,98407.34
2022-12-26T13:45:43.110Z,98410.16
2022-12-26T13:46:47.412Z,98399.47